createdAt,value
2018-02-09T00:02:03.287Z,52.00
2018-02-09T00:04:31.577Z,48.97
2018-02-09T00:06:59.106Z,45.57
2018-02-09T00:09:27.419Z,45.03
2018-02-09T00:11:55.164Z,45.23
2018-02-09T00:14:22.695Z,45.67
2018-02-09T00:16:50.216Z,43.87
2018-02-09T00:19:17.748Z,49.57
2018-02-09T00:21:45.984Z,49.57
2018-02-09T00:24:13.506Z,47.40
2018-02-09T00:26:41.723Z,46.07
2018-02-09T00:29:10.555Z,47.57
2018-02-09T00:31:38.088Z,48.23
2018-02-09T00:34:06.061Z,49.93
2018-02-09T00:36:33.624Z,49.07
2018-02-09T00:39:01.157Z,47.10
2018-02-09T00:41:29.627Z,45.43
2018-02-09T00:43:57.149Z,47.90
2018-02-09T00:46:24.679Z,45.80
2018-02-09T00:48:52.920Z,46.77
2018-02-09T00:51:20.880Z,46.27
2018-02-09T00:53:48.848Z,51.43
2018-02-09T00:56:16.930Z,55.80
2018-02-09T00:58:46.062Z,59.73
2018-02-09T01:01:14.204Z,57.80
2018-02-09T01:03:42.499Z,60.93
2018-02-09T01:06:10.025Z,63.67
2018-02-09T01:08:37.551Z,61.27
2018-02-09T01:11:05.077Z,61.80
2018-02-09T01:13:35.207Z,58.50
2018-02-09T01:16:02.749Z,58.97
2018-02-09T01:18:31.875Z,58.47
2018-02-09T01:20:59.395Z,58.03
2018-02-09T01:23:27.240Z,55.70
2018-02-09T01:25:55.540Z,54.17
2018-02-09T01:28:23.663Z,55.00
2018-02-09T01:30:51.242Z,51.50
2018-02-09T01:33:18.996Z,52.23
2018-02-09T01:35:46.526Z,50.57
2018-02-09T01:38:14.047Z,52.40
2018-02-09T01:40:42.144Z,51.77
2018-02-09T01:43:09.692Z,53.77
2018-02-09T01:45:38.002Z,52.13
2018-02-09T01:48:06.826Z,53.10
2018-02-09T01:50:35.458Z,55.87
2018-02-09T01:53:03.176Z,53.13
2018-02-09T01:55:31.473Z,49.67
2018-02-09T01:57:59.310Z,48.80
2018-02-09T02:00:28.257Z,49.50
2018-02-09T02:02:55.793Z,50.23
2018-02-09T02:05:23.319Z,47.87
2018-02-09T02:07:51.620Z,47.50
2018-02-09T02:10:19.146Z,46.83
2018-02-09T02:12:46.675Z,48.03
2018-02-09T02:15:14.240Z,48.20
2018-02-09T02:17:42.535Z,45.93
2018-02-09T02:20:10.060Z,46.77
2018-02-09T02:22:37.600Z,47.90
2018-02-09T02:25:05.116Z,45.70
2018-02-09T02:27:33.426Z,47.03
2018-02-09T02:30:01.515Z,46.60
2018-02-09T02:32:30.859Z,47.90
2018-02-09T02:34:59.178Z,46.43
2018-02-09T02:37:26.716Z,48.67
2018-02-09T02:39:55.222Z,49.80
2018-02-09T02:42:22.747Z,46.80
2018-02-09T02:44:51.773Z,48.87
2018-02-09T02:47:19.302Z,47.20
2018-02-09T02:49:47.405Z,45.53
2018-02-09T02:52:14.934Z,48.90
2018-02-09T02:54:42.461Z,46.30
2018-02-09T02:57:10.408Z,46.30
2018-02-09T02:59:38.044Z,46.73
2018-02-09T03:02:05.576Z,48.67
2018-02-09T03:04:33.884Z,47.77
2018-02-09T03:07:01.795Z,45.77
2018-02-09T03:09:30.079Z,48.77
2018-02-09T03:11:58.600Z,47.77
2018-02-09T03:14:26.149Z,46.37
2018-02-09T03:16:53.677Z,48.47
2018-02-09T03:19:22.639Z,47.83
2018-02-09T03:21:50.694Z,47.33
2018-02-09T03:24:18.220Z,49.00
2018-02-09T03:26:46.311Z,45.23
2018-02-09T03:29:14.658Z,43.93
2018-02-09T03:31:42.946Z,46.63
2018-02-09T03:34:11.188Z,46.03
2018-02-09T03:36:39.660Z,46.10
2018-02-09T03:39:07.287Z,46.33
2018-02-09T03:41:34.829Z,46.27
2018-02-09T03:44:02.389Z,43.90
2018-02-09T03:46:29.919Z,46.30
2018-02-09T03:48:58.444Z,46.63
2018-02-09T03:51:26.273Z,46.53
2018-02-09T03:53:53.860Z,42.40
2018-02-09T03:56:25.364Z,44.50
2018-02-09T03:58:53.681Z,45.87
2018-02-09T04:01:21.239Z,45.87
2018-02-09T04:03:48.764Z,44.40
2018-02-09T04:06:17.066Z,44.63
2018-02-09T04:08:44.920Z,45.67
2018-02-09T04:11:12.642Z,45.83
2018-02-09T04:13:40.160Z,44.83
2018-02-09T04:16:07.689Z,45.10
2018-02-09T04:18:35.992Z,46.33
2018-02-09T04:21:03.530Z,46.57
2018-02-09T04:23:31.598Z,43.43
2018-02-09T04:25:59.749Z,44.53
2018-02-09T04:28:27.675Z,46.03
2018-02-09T04:30:57.643Z,45.37
2018-02-09T04:33:26.355Z,43.53
2018-02-09T04:35:53.886Z,46.93
2018-02-09T04:38:22.183Z,45.63
2018-02-09T04:40:49.726Z,45.93
2018-02-09T04:43:17.257Z,46.53
2018-02-09T04:45:44.772Z,44.80
2018-02-09T04:48:12.302Z,45.13
2018-02-09T04:50:39.836Z,46.87
2018-02-09T04:53:07.364Z,45.90
2018-02-09T04:55:35.712Z,44.60
2018-02-09T04:58:03.234Z,47.17
2018-02-09T05:00:31.532Z,45.00
2018-02-09T05:02:59.113Z,44.80
2018-02-09T05:05:26.637Z,46.30
2018-02-09T05:07:54.942Z,46.30
2018-02-09T05:10:22.514Z,43.80
2018-02-09T05:12:50.048Z,46.67
2018-02-09T05:15:17.572Z,46.47
2018-02-09T05:17:46.205Z,45.67
2018-02-09T05:20:14.291Z,45.67
2018-02-09T05:22:41.834Z,44.90
2018-02-09T05:25:10.211Z,45.73
2018-02-09T05:27:37.754Z,46.97
2018-02-09T05:30:05.706Z,47.03
2018-02-09T05:32:34.615Z,46.80
2018-02-09T05:35:02.573Z,46.00
2018-02-09T05:37:30.096Z,47.50
2018-02-09T05:39:57.622Z,47.83
2018-02-09T05:42:25.163Z,47.57
2018-02-09T05:44:52.683Z,46.93
2018-02-09T05:47:20.977Z,45.77
2018-02-09T05:49:48.532Z,48.07
2018-02-09T05:52:16.821Z,48.27
2018-02-09T05:54:44.348Z,45.70
2018-02-09T05:57:12.647Z,44.20
2018-02-09T05:59:40.182Z,45.17
2018-02-09T06:02:08.701Z,47.03
2018-02-09T06:04:36.228Z,42.77
2018-02-09T06:07:04.514Z,43.50
2018-02-09T06:09:32.805Z,47.67
2018-02-09T06:12:00.328Z,47.13
2018-02-09T06:14:27.851Z,44.87
2018-02-09T06:16:55.371Z,44.17
2018-02-09T06:19:22.934Z,45.47
2018-02-09T06:21:50.452Z,44.17
2018-02-09T06:24:17.972Z,43.20
2018-02-09T06:26:45.509Z,45.87
2018-02-09T06:29:13.034Z,45.27
2018-02-09T06:31:42.075Z,45.53
2018-02-09T06:34:09.591Z,45.77
2018-02-09T06:36:37.880Z,46.50
2018-02-09T06:39:06.167Z,44.37
2018-02-09T06:41:33.684Z,45.30
2018-02-09T06:44:01.211Z,44.47
2018-02-09T06:46:28.746Z,47.17
2018-02-09T06:48:56.271Z,46.03
2018-02-09T06:51:24.556Z,48.23
2018-02-09T06:53:52.919Z,43.77
2018-02-09T06:56:20.422Z,43.37
2018-02-09T06:58:48.356Z,44.13
2018-02-09T07:01:16.647Z,44.00
2018-02-09T07:03:44.501Z,43.37
2018-02-09T07:06:12.798Z,44.23
2018-02-09T07:08:40.324Z,45.37
2018-02-09T07:11:08.630Z,45.33
2018-02-09T07:13:38.618Z,43.80
2018-02-09T07:16:08.352Z,44.80
2018-02-09T07:18:35.882Z,42.50
2018-02-09T07:21:04.522Z,44.80
2018-02-09T07:23:32.451Z,42.23
2018-02-09T07:26:00.737Z,44.77
2018-02-09T07:28:28.274Z,42.63
2018-02-09T07:30:56.760Z,42.77
2018-02-09T07:33:25.328Z,44.13
2018-02-09T07:35:54.044Z,44.47
2018-02-09T07:38:21.560Z,43.97
2018-02-09T07:40:49.090Z,42.07
2018-02-09T07:43:17.314Z,47.13
2018-02-09T07:45:45.603Z,46.13
2018-02-09T07:48:14.172Z,44.67
2018-02-09T07:50:42.464Z,46.47
2018-02-09T07:53:09.984Z,47.60
2018-02-09T07:55:37.505Z,46.63
2018-02-09T07:58:05.357Z,45.63
2018-02-09T08:00:33.151Z,46.23
2018-02-09T08:03:01.138Z,46.13
2018-02-09T08:05:29.425Z,43.60
2018-02-09T08:07:58.190Z,43.43
2018-02-09T08:10:25.735Z,44.57
2018-02-09T08:12:53.259Z,47.77
2018-02-09T08:15:20.776Z,52.03
2018-02-09T08:17:48.300Z,64.37
2018-02-09T08:20:15.820Z,52.77
2018-02-09T08:22:44.120Z,53.90
2018-02-09T08:25:11.652Z,51.33
2018-02-09T08:27:39.941Z,47.40
2018-02-09T08:30:08.328Z,47.23
2018-02-09T08:32:36.533Z,45.83
2018-02-09T08:35:04.064Z,43.73
2018-02-09T08:37:32.075Z,46.17
2018-02-09T08:39:59.613Z,45.70
2018-02-09T08:42:27.127Z,45.07
2018-02-09T08:44:54.661Z,44.37
2018-02-09T08:47:23.169Z,45.03
2018-02-09T08:49:50.689Z,45.43
2018-02-09T08:52:18.219Z,43.83
2018-02-09T08:54:45.746Z,44.13
2018-02-09T08:57:13.275Z,43.70
2018-02-09T08:59:41.875Z,44.27
2018-02-09T09:02:10.184Z,44.03
2018-02-09T09:04:37.710Z,44.87
2018-02-09T09:07:05.239Z,43.00
2018-02-09T09:09:32.769Z,43.17
2018-02-09T09:12:00.293Z,45.13
2018-02-09T09:14:27.823Z,44.30
2018-02-09T09:16:57.396Z,43.37
2018-02-09T09:19:24.923Z,42.83
2018-02-09T09:21:52.459Z,43.37
2018-02-09T09:24:20.756Z,43.30
2018-02-09T09:26:48.285Z,43.53
2018-02-09T09:29:16.820Z,43.07
2018-02-09T09:31:44.343Z,44.63
2018-02-09T09:34:11.869Z,42.87
2018-02-09T09:36:39.395Z,43.53
2018-02-09T09:39:06.931Z,44.63
2018-02-09T09:41:34.457Z,44.37
2018-02-09T09:44:02.743Z,42.60
2018-02-09T09:46:30.283Z,45.57
2018-02-09T09:48:58.572Z,43.80
2018-02-09T09:51:27.519Z,43.90
2018-02-09T09:53:55.066Z,45.90
2018-02-09T09:56:22.715Z,44.87
2018-02-09T09:58:50.240Z,45.87
2018-02-09T10:01:25.359Z,44.50
2018-02-09T10:03:53.625Z,45.70
2018-02-09T10:06:21.556Z,43.83
2018-02-09T10:08:49.781Z,43.17
2018-02-09T10:11:18.120Z,44.70
2018-02-09T10:13:45.641Z,45.00
2018-02-09T10:16:13.599Z,45.67
2018-02-09T10:18:41.901Z,44.73
2018-02-09T10:21:09.424Z,44.67
2018-02-09T10:23:37.719Z,45.57
2018-02-09T10:26:05.255Z,43.23
2018-02-09T10:28:33.536Z,44.00
2018-02-09T10:31:01.944Z,46.17
2018-02-09T10:33:29.479Z,43.63
2018-02-09T10:35:57.004Z,44.30
2018-02-09T10:38:25.334Z,45.70
2018-02-09T10:40:53.684Z,42.90
2018-02-09T10:43:21.986Z,42.43
2018-02-09T10:45:49.521Z,44.40
2018-02-09T10:48:17.815Z,42.33
2018-02-09T10:50:45.720Z,46.03
2018-02-09T10:53:13.241Z,45.57
2018-02-09T10:55:41.596Z,41.90
2018-02-09T10:58:16.848Z,44.27
2018-02-09T11:00:50.128Z,39.60
2018-02-09T11:03:19.000Z,41.37
2018-02-09T11:05:46.522Z,42.50
2018-02-09T11:08:14.034Z,41.17
2018-02-09T11:10:47.269Z,44.37
2018-02-09T11:13:17.590Z,41.77
2018-02-09T11:15:45.104Z,40.77
2018-02-09T11:18:13.924Z,42.93
2018-02-09T11:20:41.475Z,42.10
2018-02-09T11:23:08.996Z,42.43
2018-02-09T11:25:37.283Z,44.07
2018-02-09T11:28:06.000Z,44.37
2018-02-09T11:30:33.928Z,42.20
2018-02-09T11:33:02.223Z,42.60
2018-02-09T11:35:29.743Z,42.80
2018-02-09T11:37:58.567Z,42.13
2018-02-09T11:40:26.091Z,42.63
2018-02-09T11:42:53.801Z,40.43
2018-02-09T11:45:21.945Z,39.57
2018-02-09T11:47:50.227Z,42.37
2018-02-09T11:50:18.508Z,41.40
2018-02-09T11:52:46.095Z,40.67
2018-02-09T11:55:14.340Z,43.00
2018-02-09T11:57:42.620Z,39.23
2018-02-09T12:00:10.552Z,41.37
2018-02-09T12:02:40.521Z,40.33
2018-02-09T12:05:08.068Z,40.73
2018-02-09T12:07:35.582Z,40.83
2018-02-09T12:10:03.092Z,38.77
2018-02-09T12:12:30.608Z,37.90
2018-02-09T12:14:58.897Z,37.03
2018-02-09T12:17:27.201Z,38.63
2018-02-09T12:19:54.837Z,34.67
2018-02-09T12:22:23.126Z,34.63
2018-02-09T12:24:52.420Z,34.53
2018-02-09T12:27:19.940Z,37.53
2018-02-09T12:29:47.460Z,38.83
2018-02-09T12:32:15.060Z,37.13
2018-02-09T12:34:42.648Z,35.83
2018-02-09T12:37:11.392Z,37.13
2018-02-09T12:39:38.927Z,36.37
2018-02-09T12:42:06.453Z,35.03
2018-02-09T12:44:35.697Z,34.50
2018-02-09T12:47:03.556Z,35.57
2018-02-09T12:49:31.699Z,34.40
2018-02-09T12:51:59.231Z,35.63
2018-02-09T12:54:27.555Z,37.30
2018-02-09T12:56:55.694Z,35.97
2018-02-09T12:59:23.977Z,37.70
2018-02-09T13:01:51.504Z,36.50
2018-02-09T13:04:19.042Z,35.67
2018-02-09T13:06:46.565Z,38.43
2018-02-09T13:09:14.097Z,34.33
2018-02-09T13:11:42.385Z,35.03
2018-02-09T13:14:09.924Z,38.20
2018-02-09T13:16:40.052Z,33.57
2018-02-09T13:19:08.352Z,36.17
2018-02-09T13:21:35.871Z,37.17
2018-02-09T13:24:16.059Z,35.27
2018-02-09T13:26:46.056Z,35.60
2018-02-09T13:29:14.350Z,35.27
2018-02-09T13:31:41.871Z,34.70
2018-02-09T13:34:10.569Z,37.53
2018-02-09T13:39:41.005Z,38.60
2018-02-09T13:42:10.166Z,37.33
2018-02-09T13:44:37.680Z,37.03
2018-02-09T13:47:05.634Z,39.67
2018-02-09T13:49:34.274Z,40.57
2018-02-09T13:52:01.793Z,37.83
2018-02-09T13:54:30.744Z,37.73
2018-02-09T13:56:58.690Z,39.13
2018-02-09T13:59:26.203Z,37.17
2018-02-09T14:01:53.733Z,38.10
2018-02-09T14:04:21.836Z,36.63
2018-02-09T14:06:49.680Z,37.47
2018-02-09T14:09:18.591Z,37.80
2018-02-09T14:11:47.401Z,38.03
2018-02-09T14:14:14.911Z,34.97
2018-02-09T14:16:43.543Z,38.00
2018-02-09T14:19:11.081Z,38.20
2018-02-09T14:21:38.631Z,37.07
2018-02-09T14:24:06.164Z,36.13
2018-02-09T14:26:33.681Z,36.13
2018-02-09T14:29:01.613Z,34.50
2018-02-09T14:31:29.137Z,37.67
2018-02-09T14:33:56.687Z,36.20
2018-02-09T14:36:24.466Z,36.07
2018-02-09T14:38:51.984Z,38.87
2018-02-09T14:41:19.825Z,39.13
2018-02-09T14:43:47.348Z,37.87
2018-02-09T14:46:14.880Z,39.37
2018-02-09T14:48:42.392Z,39.27
2018-02-09T14:51:12.712Z,38.37
2018-02-09T14:53:41.610Z,37.70
2018-02-09T14:56:09.714Z,34.20
2018-02-09T14:58:38.189Z,37.63
2018-02-09T15:01:05.927Z,36.47
2018-02-09T15:03:33.448Z,35.23
2018-02-09T15:06:01.396Z,36.10
2018-02-09T15:08:29.887Z,36.73
2018-02-09T15:10:57.420Z,32.50
2018-02-09T15:13:24.959Z,34.50
2018-02-09T15:15:53.144Z,36.63
2018-02-09T15:18:20.660Z,37.60
2018-02-09T15:20:49.182Z,37.43
2018-02-09T15:23:16.696Z,36.40
2018-02-09T15:25:44.979Z,38.80
2018-02-09T15:28:12.511Z,39.10
2018-02-09T15:30:40.076Z,35.17
2018-02-09T15:33:07.595Z,35.63
2018-02-09T15:35:35.116Z,34.77
2018-02-09T15:38:03.716Z,35.93
2018-02-09T15:40:31.678Z,36.47
2018-02-09T15:42:59.553Z,35.20
2018-02-09T15:45:27.393Z,33.17
2018-02-09T15:47:55.672Z,35.67
2018-02-09T15:50:24.085Z,35.57
2018-02-09T15:52:51.597Z,34.90
2018-02-09T15:55:20.438Z,36.07
2018-02-09T15:57:48.478Z,34.60
2018-02-09T16:00:15.996Z,34.17
2018-02-09T16:02:43.519Z,33.97
2018-02-09T16:05:11.038Z,33.30
2018-02-09T16:07:46.746Z,33.77
2018-02-09T16:10:14.273Z,35.27
2018-02-09T16:12:41.809Z,36.80
2018-02-09T16:15:09.339Z,35.37
2018-02-09T16:17:36.855Z,36.33
2018-02-09T16:20:04.386Z,34.57
2018-02-09T16:22:31.898Z,35.07
2018-02-09T16:24:59.632Z,34.17
2018-02-09T16:27:27.157Z,32.40
2018-02-09T16:29:57.303Z,33.80
2018-02-09T16:32:25.152Z,32.37
2018-02-09T16:34:52.875Z,32.77
2018-02-09T16:37:21.999Z,33.80
2018-02-09T16:39:50.281Z,34.00
2018-02-09T16:42:18.236Z,30.93
2018-02-09T16:44:46.944Z,31.43
2018-02-09T16:47:14.462Z,31.87
2018-02-09T16:49:42.192Z,30.77
2018-02-09T16:52:10.115Z,31.27
2018-02-09T16:54:37.662Z,30.27
2018-02-09T16:57:06.659Z,31.07
2018-02-09T16:59:34.940Z,30.73
2018-02-09T17:02:03.541Z,30.47
2018-02-09T17:04:31.052Z,31.30
2018-02-09T17:06:58.570Z,29.23
2018-02-09T17:09:26.092Z,29.60
2018-02-09T17:11:54.386Z,30.03
2018-02-09T17:14:21.907Z,32.00
2018-02-09T17:16:49.474Z,32.27
2018-02-09T17:19:17.019Z,31.27
2018-02-09T17:21:47.113Z,31.97
2018-02-09T17:24:14.665Z,31.63
2018-02-09T17:26:42.175Z,30.97
2018-02-09T17:29:10.460Z,31.50
2018-02-09T17:31:39.163Z,31.33
2018-02-09T17:34:06.678Z,31.10
2018-02-09T17:36:34.220Z,28.67
2018-02-09T17:39:01.742Z,26.83
2018-02-09T17:41:29.255Z,26.90
2018-02-09T17:43:57.543Z,26.50
2018-02-09T17:46:25.828Z,26.93
2018-02-09T17:48:53.357Z,25.43
2018-02-09T17:51:20.872Z,27.33
2018-02-09T17:53:48.407Z,26.60
2018-02-09T17:56:16.291Z,28.70
2018-02-09T17:58:44.331Z,28.07
2018-02-09T18:01:12.615Z,29.87
2018-02-09T18:03:40.137Z,27.57
2018-02-09T18:06:07.662Z,27.23
2018-02-09T18:08:35.177Z,28.63
2018-02-09T18:11:03.472Z,28.03
2018-02-09T18:13:30.988Z,27.87
2018-02-09T18:15:59.831Z,26.77
2018-02-09T18:18:27.350Z,25.07
2018-02-09T18:20:55.640Z,24.30
2018-02-09T18:23:23.166Z,25.33
2018-02-09T18:25:50.688Z,23.17
2018-02-09T18:28:18.215Z,24.90
2018-02-09T18:30:45.731Z,23.20
2018-02-09T18:33:13.252Z,23.67
2018-02-09T18:35:40.775Z,25.00
2018-02-09T18:38:09.054Z,24.70
2018-02-09T18:40:37.340Z,26.83
2018-02-09T18:43:04.888Z,28.43
2018-02-09T18:45:33.172Z,28.67
2018-02-09T18:48:01.471Z,29.20
2018-02-09T18:50:29.000Z,30.07
2018-02-09T18:52:58.271Z,30.73
2018-02-09T18:55:25.791Z,28.87
2018-02-09T18:57:53.312Z,29.77
2018-02-09T19:00:21.592Z,27.53
2018-02-09T19:02:49.880Z,29.63
2018-02-09T19:05:17.404Z,28.57
2018-02-09T19:07:44.922Z,29.47
2018-02-09T19:10:12.464Z,29.27
2018-02-09T19:12:39.988Z,30.67
2018-02-09T19:15:08.274Z,30.20
2018-02-09T19:17:35.808Z,30.83
2018-02-09T19:20:04.119Z,31.00
2018-02-09T19:22:31.643Z,27.33
2018-02-09T19:24:59.156Z,28.67
2018-02-09T19:27:26.671Z,30.40
2018-02-09T19:29:54.957Z,29.07
2018-02-09T19:32:23.262Z,27.10
2018-02-09T19:34:51.784Z,27.03
2018-02-09T19:37:19.310Z,27.27
2018-02-09T19:39:46.824Z,27.00
2018-02-09T19:42:15.335Z,27.17
2018-02-09T19:44:43.676Z,27.33
2018-02-09T19:47:11.964Z,26.97
2018-02-09T19:49:40.275Z,29.00
2018-02-09T19:52:07.806Z,28.27
2018-02-09T19:54:35.938Z,27.33
2018-02-09T19:57:03.460Z,28.37
2018-02-09T19:59:30.968Z,27.57
2018-02-09T20:01:59.261Z,26.53
2018-02-09T20:04:26.796Z,27.47
2018-02-09T20:06:55.088Z,29.13
2018-02-09T20:09:23.378Z,27.27
2018-02-09T20:11:50.895Z,26.83
2018-02-09T20:14:18.411Z,28.90
2018-02-09T20:16:45.941Z,27.47
2018-02-09T20:19:14.225Z,28.23
2018-02-09T20:21:42.294Z,26.77
2018-02-09T20:24:09.815Z,28.73
2018-02-09T20:26:37.339Z,27.60
2018-02-09T20:29:05.132Z,28.27
2018-02-09T20:31:32.649Z,29.20
2018-02-09T20:34:00.175Z,29.30
2018-02-09T20:36:28.453Z,28.20
2018-02-09T20:38:56.736Z,28.67
2018-02-09T20:41:25.011Z,26.97
2018-02-09T20:43:52.542Z,27.83
2018-02-09T20:46:20.060Z,30.60
2018-02-09T20:48:47.592Z,29.83
2018-02-09T20:51:15.108Z,27.67
2018-02-09T20:53:42.623Z,29.87
2018-02-09T20:56:11.051Z,27.40
2018-02-09T20:58:38.559Z,28.50
2018-02-09T21:01:06.077Z,28.27
2018-02-09T21:03:34.357Z,27.20
2018-02-09T21:06:01.906Z,27.33
2018-02-09T21:08:29.419Z,27.13
2018-02-09T21:10:56.937Z,27.00
2018-02-09T21:13:25.223Z,27.67
2018-02-09T21:15:52.755Z,27.90
2018-02-09T21:18:20.295Z,29.17
2018-02-09T21:20:47.824Z,27.30
2018-02-09T21:23:15.370Z,26.93
2018-02-09T21:25:42.890Z,27.40
2018-02-09T21:28:11.172Z,26.30
2018-02-09T21:30:39.475Z,26.90
2018-02-09T21:33:07.956Z,25.50
2018-02-09T21:35:36.049Z,26.77
2018-02-09T21:38:04.407Z,25.20
2018-02-09T21:40:31.920Z,26.90
2018-02-09T21:42:59.501Z,27.43
2018-02-09T21:45:28.654Z,27.07
2018-02-09T21:47:56.353Z,24.90
2018-02-09T21:50:24.650Z,27.50
2018-02-09T21:52:52.177Z,26.53
2018-02-09T21:55:21.187Z,26.17
2018-02-09T21:57:50.050Z,26.00
2018-02-09T22:00:17.573Z,25.97
2018-02-09T22:02:45.099Z,24.53
2018-02-09T22:05:12.628Z,25.93
2018-02-09T22:07:40.173Z,26.20
2018-02-09T22:10:07.696Z,26.23
2018-02-09T22:12:35.220Z,26.53
2018-02-09T22:15:03.876Z,25.83
2018-02-09T22:17:31.406Z,26.57
2018-02-09T22:19:58.928Z,26.57
2018-02-09T22:22:26.484Z,27.77
2018-02-09T22:24:54.041Z,26.63
2018-02-09T22:27:23.153Z,28.47
2018-02-09T22:29:50.679Z,26.43
2018-02-09T22:32:18.968Z,27.57
2018-02-09T22:34:47.257Z,25.67
2018-02-09T22:37:14.779Z,27.57
2018-02-09T22:39:42.300Z,24.83
2018-02-09T22:42:10.212Z,25.07
2018-02-09T22:44:38.527Z,25.30
2018-02-09T22:47:06.047Z,37.70
2018-02-09T22:49:34.331Z,44.87
2018-02-09T22:52:05.089Z,34.30
2018-02-09T22:54:32.612Z,39.40
2018-02-09T22:57:01.336Z,44.27
2018-02-09T22:59:28.855Z,40.73
2018-02-09T23:01:57.156Z,39.87
2018-02-09T23:04:25.940Z,34.70
2018-02-09T23:06:53.700Z,34.93
2018-02-09T23:09:22.946Z,33.17
2018-02-09T23:11:51.980Z,34.00
2018-02-09T23:14:20.700Z,31.90
2018-02-09T23:16:48.635Z,29.93
2018-02-09T23:19:16.920Z,27.43
2018-02-09T23:21:45.213Z,28.13
2018-02-09T23:24:13.553Z,28.00
2018-02-09T23:26:41.853Z,27.30
2018-02-09T23:29:09.799Z,30.97
2018-02-09T23:31:38.087Z,31.37
2018-02-09T23:34:06.389Z,31.20
2018-02-09T23:36:33.909Z,31.80
2018-02-09T23:39:02.199Z,31.57
2018-02-09T23:41:30.820Z,29.63
2018-02-09T23:43:58.344Z,29.37
2018-02-09T23:46:26.172Z,28.27
2018-02-09T23:48:53.684Z,29.47
2018-02-09T23:51:21.220Z,30.63
2018-02-09T23:53:51.978Z,30.83
2018-02-09T23:56:20.060Z,28.70
2018-02-09T23:58:47.591Z,29.50
